Ofertas de vuelos a Natal

Encontranos en
En el mes de
SalidaRegresoDíasConexionesDisponibilidad
Lun 02/12/20192019-12-02Mie 11/12/20192019-12-119ConexionesVer disponibilidad>12https://an.despegar.com/ad/1040?q=shop%2Fflights%2Fresults%2Froundtrip%2FBUE%2FNAT%2F2019-12-02%2F2019-12-11%2F1%2F0%2F0
Mie 04/03/20202020-03-04Lun 23/03/20202020-03-2319ConexionesVer disponibilidad>03https://an.despegar.com/ad/1040?q=shop%2Fflights%2Fresults%2Froundtrip%2FBUE%2FNAT%2F2020-03-04%2F2020-03-23%2F1%2F0%2F0
Mie 04/03/20202020-03-04Mie 18/03/20202020-03-1814ConexionesVer disponibilidad>03https://an.despegar.com/ad/1040?q=shop%2Fflights%2Fresults%2Froundtrip%2FBUE%2FNAT%2F2020-03-04%2F2020-03-18%2F1%2F0%2F0
Mie 04/03/20202020-03-04Jue 12/03/20202020-03-128ConexionesVer disponibilidad>03https://an.despegar.com/ad/1040?q=shop%2Fflights%2Fresults%2Froundtrip%2FBUE%2FNAT%2F2020-03-04%2F2020-03-12%2F1%2F0%2F0
Mie 04/03/20202020-03-04Mie 11/03/20202020-03-117ConexionesVer disponibilidad>03https://an.despegar.com/ad/1040?q=shop%2Fflights%2Fresults%2Froundtrip%2FBUE%2FNAT%2F2020-03-04%2F2020-03-11%2F1%2F0%2F0
Jue 05/03/20202020-03-05Jue 12/03/20202020-03-127ConexionesVer disponibilidad>03https://an.despegar.com/ad/1040?q=shop%2Fflights%2Fresults%2Froundtrip%2FBUE%2FNAT%2F2020-03-05%2F2020-03-12%2F1%2F0%2F0
Vie 06/03/20202020-03-06Dom 22/03/20202020-03-2216ConexionesVer disponibilidad>03https://an.despegar.com/ad/1040?q=shop%2Fflights%2Fresults%2Froundtrip%2FBUE%2FNAT%2F2020-03-06%2F2020-03-22%2F1%2F0%2F0
Vie 06/03/20202020-03-06Sab 21/03/20202020-03-2115ConexionesVer disponibilidad>03https://an.despegar.com/ad/1040?q=shop%2Fflights%2Fresults%2Froundtrip%2FBUE%2FNAT%2F2020-03-06%2F2020-03-21%2F1%2F0%2F0
Dom 08/03/20202020-03-08Sab 14/03/20202020-03-146ConexionesVer disponibilidad>03https://an.despegar.com/ad/1040?q=shop%2Fflights%2Fresults%2Froundtrip%2FBUE%2FNAT%2F2020-03-08%2F2020-03-14%2F1%2F0%2F0
Dom 08/03/20202020-03-08Mie 18/03/20202020-03-1810ConexionesVer disponibilidad>03https://an.despegar.com/ad/1040?q=shop%2Fflights%2Fresults%2Froundtrip%2FBUE%2FNAT%2F2020-03-08%2F2020-03-18%2F1%2F0%2F0
Sab 14/03/20202020-03-14Mar 24/03/20202020-03-2410ConexionesVer disponibilidad>03https://an.despegar.com/ad/1040?q=shop%2Fflights%2Fresults%2Froundtrip%2FBUE%2FNAT%2F2020-03-14%2F2020-03-24%2F1%2F0%2F0
Lun 16/03/20202020-03-16Dom 22/03/20202020-03-226ConexionesVer disponibilidad>03https://an.despegar.com/ad/1040?q=shop%2Fflights%2Fresults%2Froundtrip%2FBUE%2FNAT%2F2020-03-16%2F2020-03-22%2F1%2F0%2F0
Lun 16/03/20202020-03-16Sab 28/03/20202020-03-2812ConexionesVer disponibilidad>03https://an.despegar.com/ad/1040?q=shop%2Fflights%2Fresults%2Froundtrip%2FBUE%2FNAT%2F2020-03-16%2F2020-03-28%2F1%2F0%2F0
Lun 16/03/20202020-03-16Jue 26/03/20202020-03-2610ConexionesVer disponibilidad>03https://an.despegar.com/ad/1040?q=shop%2Fflights%2Fresults%2Froundtrip%2FBUE%2FNAT%2F2020-03-16%2F2020-03-26%2F1%2F0%2F0
Lun 16/03/20202020-03-16Mie 25/03/20202020-03-259ConexionesVer disponibilidad>03https://an.despegar.com/ad/1040?q=shop%2Fflights%2Fresults%2Froundtrip%2FBUE%2FNAT%2F2020-03-16%2F2020-03-25%2F1%2F0%2F0
Mar 17/03/20202020-03-17Mar 31/03/20202020-03-3114ConexionesVer disponibilidad>03https://an.despegar.com/ad/1040?q=shop%2Fflights%2Fresults%2Froundtrip%2FBUE%2FNAT%2F2020-03-17%2F2020-03-31%2F1%2F0%2F0
Vie 20/03/20202020-03-20Dom 29/03/20202020-03-299ConexionesVer disponibilidad>03https://an.despegar.com/ad/1040?q=shop%2Fflights%2Fresults%2Froundtrip%2FBUE%2FNAT%2F2020-03-20%2F2020-03-29%2F1%2F0%2F0
Vie 20/03/20202020-03-20Mie 01/04/20202020-04-0112ConexionesVer disponibilidad>03https://an.despegar.com/ad/1040?q=shop%2Fflights%2Fresults%2Froundtrip%2FBUE%2FNAT%2F2020-03-20%2F2020-04-01%2F1%2F0%2F0
Vie 20/03/20202020-03-20Mar 31/03/20202020-03-3111ConexionesVer disponibilidad>03https://an.despegar.com/ad/1040?q=shop%2Fflights%2Fresults%2Froundtrip%2FBUE%2FNAT%2F2020-03-20%2F2020-03-31%2F1%2F0%2F0
Mie 25/03/20202020-03-25Sab 04/04/20202020-04-0410ConexionesVer disponibilidad>03https://an.despegar.com/ad/1040?q=shop%2Fflights%2Fresults%2Froundtrip%2FBUE%2FNAT%2F2020-03-25%2F2020-04-04%2F1%2F0%2F0
Jue 26/03/20202020-03-26Lun 06/04/20202020-04-0611ConexionesVer disponibilidad>03https://an.despegar.com/ad/1040?q=shop%2Fflights%2Fresults%2Froundtrip%2FBUE%2FNAT%2F2020-03-26%2F2020-04-06%2F1%2F0%2F0
Sab 09/05/20202020-05-09Dom 17/05/20202020-05-178ConexionesVer disponibilidad>05https://an.despegar.com/ad/1040?q=shop%2Fflights%2Fresults%2Froundtrip%2FBUE%2FNAT%2F2020-05-09%2F2020-05-17%2F1%2F0%2F0
Sab 06/06/20202020-06-06Dom 14/06/20202020-06-148ConexionesVer disponibilidad>06https://an.despegar.com/ad/1040?q=shop%2Fflights%2Fresults%2Froundtrip%2FBUE%2FNAT%2F2020-06-06%2F2020-06-14%2F1%2F0%2F0
Sab 13/06/20202020-06-13Dom 21/06/20202020-06-218ConexionesVer disponibilidad>06https://an.despegar.com/ad/1040?q=shop%2Fflights%2Fresults%2Froundtrip%2FBUE%2FNAT%2F2020-06-13%2F2020-06-21%2F1%2F0%2F0
Sab 15/08/20202020-08-15Dom 23/08/20202020-08-238ConexionesVer disponibilidad>08https://an.despegar.com/ad/1040?q=shop%2Fflights%2Fresults%2Froundtrip%2FBUE%2FNAT%2F2020-08-15%2F2020-08-23%2F1%2F0%2F0

Información general sobre Natal

Natal, que en español significa Navidad, es una ciudad brasileña localizada en el estado de Rio Grande do Norte. Atravesada por el río Potengi, la capital nordestina cuenta con playas, dunas y diferentes atracciones históricas. Anualmente recibe a dos millones de turistas y es la puerta de entrada hacia otros importantes destinos del estado.

Pasajes Aéreos y Vuelos Baratos a Natal

Descargá gratis nuestra nueva app para Android y iOS.
Suscribite a las notificaciones de Chrome y Safari.
Seguinos en Facebook, Twitter e Instagram
Suscribite a nuestro newsletter aquí.